CMH weather

John Glenn Columbus International Airport
Columbus, Ohio, United States

Public forecast

Using degrees Fahrenheit for public forecast. Weather courtesy of forecast.io.

METAR (pilot weather report)

Retrieved 2019/05/26 12:51 UTC (2 hours ago):

KCMH 261251Z VRB03KT 10SM SCT090 19/17 A3008 RMK AO2 PK WND 29031/1154 WSHFT 1159 RAE33 TSE16 SLP181 P0013 T01940172

TAF (pilot weather forecast)

Retrieved 2019/05/26 12:30 UTC (2 hours ago):

TAF KCMH 261227Z 2612/2712 24007KT P6SM SCT060 BKN100 FM261600 25008KT P6SM -SHRA VCTS BKN040CB OVC200 FM262000 28008KT 5SM -SHRA VCTS OVC040CB FM270000 31007KT P6SM VCSH BKN050 FM270400 35006KT P6SM BKN020